sensor_id;sensor_type;location;lat;lon;timestamp;P1;durP1;ratioP1;P2;durP2;ratioP2
63394;SDS011;49531;-34.520;150.798;2023-10-31T00:00:32;1.92;;;0.50;;
63394;SDS011;49531;-34.520;150.798;2023-10-31T00:02:59;0.90;;;0.40;;
63394;SDS011;49531;-34.520;150.798;2023-10-31T00:05:26;2.17;;;0.50;;
63394;SDS011;49531;-34.520;150.798;2023-10-31T00:07:53;2.00;;;0.60;;
63394;SDS011;49531;-34.520;150.798;2023-10-31T00:10:20;0.93;;;0.60;;
63394;SDS011;49531;-34.520;150.798;2023-10-31T00:12:47;1.90;;;0.60;;
63394;SDS011;49531;-34.520;150.798;2023-10-31T00:15:14;1.15;;;0.40;;
63394;SDS011;49531;-34.520;150.798;2023-10-31T00:17:41;1.20;;;0.50;;
63394;SDS011;49531;-34.520;150.798;2023-10-31T00:20:09;1.65;;;0.47;;
63394;SDS011;49531;-34.520;150.798;2023-10-31T00:22:36;2.35;;;0.60;;
63394;SDS011;49531;-34.520;150.798;2023-10-31T00:25:04;2.90;;;0.50;;
63394;SDS011;49531;-34.520;150.798;2023-10-31T00:27:31;5.03;;;0.60;;
63394;SDS011;49531;-34.520;150.798;2023-10-31T00:29:58;2.42;;;0.40;;
63394;SDS011;49531;-34.520;150.798;2023-10-31T00:32:25;3.03;;;0.50;;
63394;SDS011;49531;-34.520;150.798;2023-10-31T00:34:52;0.55;;;0.47;;
63394;SDS011;49531;-34.520;150.798;2023-10-31T00:37:19;0.95;;;0.60;;
63394;SDS011;49531;-34.520;150.798;2023-10-31T00:39:46;3.25;;;0.50;;
63394;SDS011;49531;-34.520;150.798;2023-10-31T00:42:14;1.98;;;0.50;;
63394;SDS011;49531;-34.520;150.798;2023-10-31T00:44:41;0.55;;;0.40;;
63394;SDS011;49531;-34.520;150.798;2023-10-31T00:47:08;0.50;;;0.50;;
63394;SDS011;49531;-34.520;150.798;2023-10-31T00:49:35;2.67;;;0.70;;
63394;SDS011;49531;-34.520;150.798;2023-10-31T00:52:02;0.63;;;0.50;;
63394;SDS011;49531;-34.520;150.798;2023-10-31T00:54:29;0.93;;;0.60;;
63394;SDS011;49531;-34.520;150.798;2023-10-31T00:56:57;2.08;;;0.60;;
63394;SDS011;49531;-34.520;150.798;2023-10-31T00:59:24;1.30;;;0.60;;
63394;SDS011;49531;-34.520;150.798;2023-10-31T01:01:51;2.78;;;0.60;;
63394;SDS011;49531;-34.520;150.798;2023-10-31T01:04:18;1.00;;;0.50;;
63394;SDS011;49531;-34.520;150.798;2023-10-31T01:06:47;1.05;;;0.50;;
63394;SDS011;49531;-34.520;150.798;2023-10-31T01:09:14;0.50;;;0.50;;
63394;SDS011;49531;-34.520;150.798;2023-10-31T01:11:42;0.82;;;0.50;;
63394;SDS011;49531;-34.520;150.798;2023-10-31T01:14:09;1.25;;;0.70;;
63394;SDS011;49531;-34.520;150.798;2023-10-31T01:16:36;0.60;;;0.50;;
63394;SDS011;49531;-34.520;150.798;2023-10-31T01:19:03;0.80;;;0.40;;
63394;SDS011;49531;-34.520;150.798;2023-10-31T01:21:30;3.10;;;0.57;;
63394;SDS011;49531;-34.520;150.798;2023-10-31T01:23:58;1.80;;;0.57;;
63394;SDS011;49531;-34.520;150.798;2023-10-31T01:26:26;0.55;;;0.50;;
63394;SDS011;49531;-34.520;150.798;2023-10-31T01:28:53;0.93;;;0.60;;
63394;SDS011;49531;-34.520;150.798;2023-10-31T01:31:20;0.93;;;0.52;;
63394;SDS011;49531;-34.520;150.798;2023-10-31T01:33:47;1.58;;;0.70;;
63394;SDS011;49531;-34.520;150.798;2023-10-31T01:36:14;1.42;;;0.60;;
63394;SDS011;49531;-34.520;150.798;2023-10-31T01:38:41;2.00;;;0.50;;
63394;SDS011;49531;-34.520;150.798;2023-10-31T01:41:09;5.03;;;0.60;;
63394;SDS011;49531;-34.520;150.798;2023-10-31T01:43:36;1.63;;;0.60;;
63394;SDS011;49531;-34.520;150.798;2023-10-31T01:46:04;2.08;;;0.60;;
63394;SDS011;49531;-34.520;150.798;2023-10-31T01:48:32;1.20;;;0.55;;
63394;SDS011;49531;-34.520;150.798;2023-10-31T01:51:00;3.03;;;0.60;;
63394;SDS011;49531;-34.520;150.798;2023-10-31T01:53:31;2.20;;;0.75;;
63394;SDS011;49531;-34.520;150.798;2023-10-31T01:56:00;2.33;;;0.60;;
63394;SDS011;49531;-34.520;150.798;2023-10-31T01:58:36;4.85;;;0.52;;
63394;SDS011;49531;-34.520;150.798;2023-10-31T02:01:04;1.98;;;0.60;;
63394;SDS011;49531;-34.520;150.798;2023-10-31T02:03:32;2.72;;;0.63;;
63394;SDS011;49531;-34.520;150.798;2023-10-31T02:05:59;2.03;;;0.70;;
63394;SDS011;49531;-34.520;150.798;2023-10-31T02:08:26;2.22;;;0.60;;
63394;SDS011;49531;-34.520;150.798;2023-10-31T02:10:54;1.23;;;0.65;;
63394;SDS011;49531;-34.520;150.798;2023-10-31T02:13:21;1.95;;;0.70;;
63394;SDS011;49531;-34.520;150.798;2023-10-31T02:15:48;3.15;;;0.80;;
63394;SDS011;49531;-34.520;150.798;2023-10-31T02:18:15;2.05;;;0.75;;
63394;SDS011;49531;-34.520;150.798;2023-10-31T02:20:42;2.17;;;0.60;;
63394;SDS011;49531;-34.520;150.798;2023-10-31T02:23:09;1.75;;;0.60;;
63394;SDS011;49531;-34.520;150.798;2023-10-31T02:25:36;1.13;;;0.60;;
63394;SDS011;49531;-34.520;150.798;2023-10-31T02:28:04;1.17;;;0.70;;
63394;SDS011;49531;-34.520;150.798;2023-10-31T02:30:31;2.00;;;0.85;;
63394;SDS011;49531;-34.520;150.798;2023-10-31T02:32:58;1.80;;;0.60;;
63394;SDS011;49531;-34.520;150.798;2023-10-31T02:35:26;1.92;;;0.68;;
63394;SDS011;49531;-34.520;150.798;2023-10-31T02:37:54;2.17;;;0.60;;
63394;SDS011;49531;-34.520;150.798;2023-10-31T02:40:21;2.83;;;1.10;;
63394;SDS011;49531;-34.520;150.798;2023-10-31T02:42:48;3.08;;;1.20;;
63394;SDS011;49531;-34.520;150.798;2023-10-31T02:45:15;4.85;;;0.98;;
63394;SDS011;49531;-34.520;150.798;2023-10-31T02:47:42;4.93;;;1.30;;
63394;SDS011;49531;-34.520;150.798;2023-10-31T02:50:09;4.88;;;1.20;;
63394;SDS011;49531;-34.520;150.798;2023-10-31T02:52:37;3.92;;;1.40;;
63394;SDS011;49531;-34.520;150.798;2023-10-31T02:55:04;3.65;;;1.13;;
63394;SDS011;49531;-34.520;150.798;2023-10-31T02:57:31;4.80;;;1.30;;
63394;SDS011;49531;-34.520;150.798;2023-10-31T02:59:58;6.00;;;1.58;;
63394;SDS011;49531;-34.520;150.798;2023-10-31T03:02:26;6.35;;;1.60;;
63394;SDS011;49531;-34.520;150.798;2023-10-31T03:04:53;4.53;;;1.45;;
63394;SDS011;49531;-34.520;150.798;2023-10-31T03:07:20;6.47;;;1.80;;
63394;SDS011;49531;-34.520;150.798;2023-10-31T03:09:47;4.80;;;1.50;;
63394;SDS011;49531;-34.520;150.798;2023-10-31T03:12:14;6.57;;;1.92;;
63394;SDS011;49531;-34.520;150.798;2023-10-31T03:14:42;6.82;;;1.77;;
63394;SDS011;49531;-34.520;150.798;2023-10-31T03:17:09;6.75;;;1.75;;
63394;SDS011;49531;-34.520;150.798;2023-10-31T03:19:36;5.85;;;1.80;;
63394;SDS011;49531;-34.520;150.798;2023-10-31T03:22:03;4.68;;;1.77;;
63394;SDS011;49531;-34.520;150.798;2023-10-31T03:24:31;7.80;;;1.90;;
63394;SDS011;49531;-34.520;150.798;2023-10-31T03:26:58;7.72;;;1.90;;
63394;SDS011;49531;-34.520;150.798;2023-10-31T03:29:25;8.70;;;1.90;;
63394;SDS011;49531;-34.520;150.798;2023-10-31T03:31:52;5.72;;;1.67;;
63394;SDS011;49531;-34.520;150.798;2023-10-31T03:34:19;10.57;;;1.80;;
63394;SDS011;49531;-34.520;150.798;2023-10-31T03:36:46;7.97;;;1.73;;
63394;SDS011;49531;-34.520;150.798;2023-10-31T03:39:13;7.50;;;1.90;;
63394;SDS011;49531;-34.520;150.798;2023-10-31T03:41:41;5.90;;;1.92;;
63394;SDS011;49531;-34.520;150.798;2023-10-31T03:44:08;5.93;;;1.80;;
63394;SDS011;49531;-34.520;150.798;2023-10-31T03:46:35;7.70;;;1.80;;
63394;SDS011;49531;-34.520;150.798;2023-10-31T03:49:02;8.55;;;1.98;;
63394;SDS011;49531;-34.520;150.798;2023-10-31T03:51:29;5.75;;;1.70;;
63394;SDS011;49531;-34.520;150.798;2023-10-31T03:53:56;12.18;;;1.90;;
63394;SDS011;49531;-34.520;150.798;2023-10-31T03:56:23;5.53;;;1.73;;
63394;SDS011;49531;-34.520;150.798;2023-10-31T03:58:50;4.78;;;1.63;;
63394;SDS011;49531;-34.520;150.798;2023-10-31T04:01:17;6.13;;;1.88;;
63394;SDS011;49531;-34.520;150.798;2023-10-31T04:03:45;4.70;;;1.60;;
63394;SDS011;49531;-34.520;150.798;2023-10-31T04:06:12;5.57;;;1.55;;
63394;SDS011;49531;-34.520;150.798;2023-10-31T04:08:39;7.80;;;1.80;;
63394;SDS011;49531;-34.520;150.798;2023-10-31T04:11:07;6.18;;;1.50;;
63394;SDS011;49531;-34.520;150.798;2023-10-31T04:13:34;7.90;;;1.80;;
63394;SDS011;49531;-34.520;150.798;2023-10-31T04:16:01;4.05;;;1.70;;
63394;SDS011;49531;-34.520;150.798;2023-10-31T04:18:29;4.53;;;1.55;;
63394;SDS011;49531;-34.520;150.798;2023-10-31T04:20:56;8.05;;;1.90;;
63394;SDS011;49531;-34.520;150.798;2023-10-31T04:23:23;5.60;;;1.60;;
63394;SDS011;49531;-34.520;150.798;2023-10-31T04:25:50;6.07;;;1.65;;
63394;SDS011;49531;-34.520;150.798;2023-10-31T04:28:18;5.43;;;1.65;;
63394;SDS011;49531;-34.520;150.798;2023-10-31T04:30:45;7.57;;;1.60;;
63394;SDS011;49531;-34.520;150.798;2023-10-31T04:33:12;5.88;;;1.65;;
63394;SDS011;49531;-34.520;150.798;2023-10-31T04:35:39;5.82;;;1.73;;
63394;SDS011;49531;-34.520;150.798;2023-10-31T04:38:06;8.73;;;1.65;;
63394;SDS011;49531;-34.520;150.798;2023-10-31T04:40:33;6.82;;;1.50;;
63394;SDS011;49531;-34.520;150.798;2023-10-31T04:43:01;6.97;;;1.52;;
63394;SDS011;49531;-34.520;150.798;2023-10-31T04:45:28;7.75;;;1.63;;
63394;SDS011;49531;-34.520;150.798;2023-10-31T04:47:55;5.57;;;1.48;;
63394;SDS011;49531;-34.520;150.798;2023-10-31T04:50:22;5.97;;;1.60;;
63394;SDS011;49531;-34.520;150.798;2023-10-31T04:52:49;5.47;;;1.40;;
63394;SDS011;49531;-34.520;150.798;2023-10-31T04:55:16;8.18;;;1.70;;
63394;SDS011;49531;-34.520;150.798;2023-10-31T04:57:43;9.27;;;1.70;;
63394;SDS011;49531;-34.520;150.798;2023-10-31T05:00:11;6.30;;;1.60;;
63394;SDS011;49531;-34.520;150.798;2023-10-31T05:02:38;4.53;;;1.50;;
63394;SDS011;49531;-34.520;150.798;2023-10-31T05:05:05;5.22;;;1.60;;
63394;SDS011;49531;-34.520;150.798;2023-10-31T05:07:32;5.22;;;1.42;;
63394;SDS011;49531;-34.520;150.798;2023-10-31T05:09:59;5.07;;;1.45;;
63394;SDS011;49531;-34.520;150.798;2023-10-31T05:12:26;4.00;;;1.40;;
63394;SDS011;49531;-34.520;150.798;2023-10-31T05:14:53;6.38;;;1.50;;
63394;SDS011;49531;-34.520;150.798;2023-10-31T05:17:21;3.97;;;1.30;;
63394;SDS011;49531;-34.520;150.798;2023-10-31T05:19:48;7.65;;;1.70;;
63394;SDS011;49531;-34.520;150.798;2023-10-31T05:22:15;5.90;;;1.50;;
63394;SDS011;49531;-34.520;150.798;2023-10-31T05:24:42;3.75;;;1.20;;
63394;SDS011;49531;-34.520;150.798;2023-10-31T05:27:09;4.50;;;1.40;;
63394;SDS011;49531;-34.520;150.798;2023-10-31T05:29:38;6.13;;;1.20;;
63394;SDS011;49531;-34.520;150.798;2023-10-31T05:32:05;4.88;;;1.27;;
63394;SDS011;49531;-34.520;150.798;2023-10-31T05:34:32;4.97;;;1.38;;
63394;SDS011;49531;-34.520;150.798;2023-10-31T05:37:00;6.25;;;1.27;;
63394;SDS011;49531;-34.520;150.798;2023-10-31T05:39:27;6.13;;;1.50;;
63394;SDS011;49531;-34.520;150.798;2023-10-31T05:41:54;6.07;;;1.50;;
63394;SDS011;49531;-34.520;150.798;2023-10-31T05:44:24;6.43;;;1.45;;
63394;SDS011;49531;-34.520;150.798;2023-10-31T05:46:52;6.22;;;1.27;;
63394;SDS011;49531;-34.520;150.798;2023-10-31T05:49:19;10.55;;;1.60;;
63394;SDS011;49531;-34.520;150.798;2023-10-31T05:51:52;7.13;;;1.45;;
63394;SDS011;49531;-34.520;150.798;2023-10-31T05:54:22;7.75;;;1.55;;
63394;SDS011;49531;-34.520;150.798;2023-10-31T05:56:51;8.05;;;1.38;;
63394;SDS011;49531;-34.520;150.798;2023-10-31T05:59:18;7.47;;;1.20;;
63394;SDS011;49531;-34.520;150.798;2023-10-31T06:01:45;7.35;;;1.40;;
63394;SDS011;49531;-34.520;150.798;2023-10-31T06:04:13;5.47;;;1.35;;
63394;SDS011;49531;-34.520;150.798;2023-10-31T06:06:41;9.27;;;1.30;;
63394;SDS011;49531;-34.520;150.798;2023-10-31T06:09:10;2.70;;;1.00;;
63394;SDS011;49531;-34.520;150.798;2023-10-31T06:11:42;8.63;;;1.50;;
63394;SDS011;49531;-34.520;150.798;2023-10-31T06:14:10;10.10;;;1.40;;
63394;SDS011;49531;-34.520;150.798;2023-10-31T06:16:41;7.25;;;1.40;;
63394;SDS011;49531;-34.520;150.798;2023-10-31T06:19:09;6.65;;;1.20;;
63394;SDS011;49531;-34.520;150.798;2023-10-31T06:21:36;8.68;;;1.45;;
63394;SDS011;49531;-34.520;150.798;2023-10-31T06:24:04;6.22;;;1.30;;
63394;SDS011;49531;-34.520;150.798;2023-10-31T06:26:31;7.05;;;1.38;;
63394;SDS011;49531;-34.520;150.798;2023-10-31T06:28:58;8.60;;;1.33;;
63394;SDS011;49531;-34.520;150.798;2023-10-31T06:31:25;3.28;;;1.00;;
63394;SDS011;49531;-34.520;150.798;2023-10-31T06:33:52;6.43;;;1.25;;
63394;SDS011;49531;-34.520;150.798;2023-10-31T06:36:19;5.13;;;1.20;;
63394;SDS011;49531;-34.520;150.798;2023-10-31T06:38:46;6.13;;;1.10;;
63394;SDS011;49531;-34.520;150.798;2023-10-31T06:41:13;6.30;;;1.38;;
63394;SDS011;49531;-34.520;150.798;2023-10-31T06:43:41;4.28;;;1.10;;
63394;SDS011;49531;-34.520;150.798;2023-10-31T06:46:08;5.78;;;1.10;;
63394;SDS011;49531;-34.520;150.798;2023-10-31T06:48:35;7.35;;;1.20;;
63394;SDS011;49531;-34.520;150.798;2023-10-31T06:51:03;4.72;;;1.25;;
63394;SDS011;49531;-34.520;150.798;2023-10-31T06:53:30;7.78;;;1.30;;
63394;SDS011;49531;-34.520;150.798;2023-10-31T06:55:58;6.25;;;1.35;;
63394;SDS011;49531;-34.520;150.798;2023-10-31T06:58:26;5.65;;;1.23;;
63394;SDS011;49531;-34.520;150.798;2023-10-31T07:00:53;7.05;;;1.33;;
63394;SDS011;49531;-34.520;150.798;2023-10-31T07:03:23;5.35;;;1.27;;
63394;SDS011;49531;-34.520;150.798;2023-10-31T07:05:50;7.18;;;1.52;;
63394;SDS011;49531;-34.520;150.798;2023-10-31T07:08:18;5.82;;;1.45;;
63394;SDS011;49531;-34.520;150.798;2023-10-31T07:10:45;6.30;;;1.38;;
63394;SDS011;49531;-34.520;150.798;2023-10-31T07:13:12;4.88;;;1.58;;
63394;SDS011;49531;-34.520;150.798;2023-10-31T07:15:39;6.25;;;1.50;;
63394;SDS011;49531;-34.520;150.798;2023-10-31T07:18:08;6.72;;;1.33;;
63394;SDS011;49531;-34.520;150.798;2023-10-31T07:20:35;6.38;;;1.30;;
63394;SDS011;49531;-34.520;150.798;2023-10-31T07:23:02;4.57;;;1.27;;
63394;SDS011;49531;-34.520;150.798;2023-10-31T07:25:29;7.53;;;1.42;;
63394;SDS011;49531;-34.520;150.798;2023-10-31T07:27:56;6.57;;;1.30;;
63394;SDS011;49531;-34.520;150.798;2023-10-31T07:30:23;5.18;;;1.27;;
63394;SDS011;49531;-34.520;150.798;2023-10-31T07:32:51;5.88;;;1.33;;
63394;SDS011;49531;-34.520;150.798;2023-10-31T07:35:18;7.65;;;1.23;;
63394;SDS011;49531;-34.520;150.798;2023-10-31T07:37:45;6.97;;;1.30;;
63394;SDS011;49531;-34.520;150.798;2023-10-31T07:40:13;8.48;;;1.38;;
63394;SDS011;49531;-34.520;150.798;2023-10-31T07:42:40;7.78;;;1.13;;
63394;SDS011;49531;-34.520;150.798;2023-10-31T07:45:07;3.10;;;1.13;;
63394;SDS011;49531;-34.520;150.798;2023-10-31T07:47:36;6.50;;;1.30;;
63394;SDS011;49531;-34.520;150.798;2023-10-31T07:50:04;6.90;;;1.27;;
63394;SDS011;49531;-34.520;150.798;2023-10-31T07:52:32;8.57;;;1.50;;
63394;SDS011;49531;-34.520;150.798;2023-10-31T07:54:59;7.95;;;1.40;;
63394;SDS011;49531;-34.520;150.798;2023-10-31T07:57:26;4.93;;;1.15;;
63394;SDS011;49531;-34.520;150.798;2023-10-31T07:59:53;8.07;;;1.20;;
63394;SDS011;49531;-34.520;150.798;2023-10-31T08:02:20;3.85;;;1.20;;
63394;SDS011;49531;-34.520;150.798;2023-10-31T08:04:47;6.15;;;1.15;;
63394;SDS011;49531;-34.520;150.798;2023-10-31T08:07:14;8.30;;;1.52;;
63394;SDS011;49531;-34.520;150.798;2023-10-31T08:09:41;8.93;;;1.38;;
63394;SDS011;49531;-34.520;150.798;2023-10-31T08:12:08;6.68;;;1.35;;
63394;SDS011;49531;-34.520;150.798;2023-10-31T08:14:35;5.40;;;1.40;;
63394;SDS011;49531;-34.520;150.798;2023-10-31T08:17:02;6.25;;;1.48;;
63394;SDS011;49531;-34.520;150.798;2023-10-31T08:19:29;8.20;;;1.42;;
63394;SDS011;49531;-34.520;150.798;2023-10-31T08:21:56;6.47;;;1.30;;
63394;SDS011;49531;-34.520;150.798;2023-10-31T08:24:24;10.90;;;1.67;;
63394;SDS011;49531;-34.520;150.798;2023-10-31T08:26:51;7.32;;;1.40;;
63394;SDS011;49531;-34.520;150.798;2023-10-31T08:29:21;10.25;;;1.48;;
63394;SDS011;49531;-34.520;150.798;2023-10-31T08:31:48;11.02;;;1.30;;
63394;SDS011;49531;-34.520;150.798;2023-10-31T08:34:15;6.97;;;1.42;;
63394;SDS011;49531;-34.520;150.798;2023-10-31T08:36:42;6.25;;;1.50;;
63394;SDS011;49531;-34.520;150.798;2023-10-31T08:39:09;6.93;;;1.23;;
63394;SDS011;49531;-34.520;150.798;2023-10-31T08:41:36;5.00;;;1.45;;
63394;SDS011;49531;-34.520;150.798;2023-10-31T08:44:14;12.18;;;1.48;;
63394;SDS011;49531;-34.520;150.798;2023-10-31T08:46:42;8.90;;;1.70;;
63394;SDS011;49531;-34.520;150.798;2023-10-31T08:49:09;5.70;;;1.38;;
63394;SDS011;49531;-34.520;150.798;2023-10-31T08:51:36;10.68;;;1.80;;
63394;SDS011;49531;-34.520;150.798;2023-10-31T08:54:03;6.85;;;1.50;;
63394;SDS011;49531;-34.520;150.798;2023-10-31T08:56:31;7.50;;;1.88;;
63394;SDS011;49531;-34.520;150.798;2023-10-31T08:58:58;9.07;;;1.80;;
63394;SDS011;49531;-34.520;150.798;2023-10-31T09:01:25;8.93;;;1.60;;
63394;SDS011;49531;-34.520;150.798;2023-10-31T09:03:54;8.15;;;1.90;;
63394;SDS011;49531;-34.520;150.798;2023-10-31T09:06:24;8.05;;;1.67;;
63394;SDS011;49531;-34.520;150.798;2023-10-31T09:08:54;4.55;;;1.40;;
63394;SDS011;49531;-34.520;150.798;2023-10-31T09:11:21;6.90;;;1.60;;
63394;SDS011;49531;-34.520;150.798;2023-10-31T09:13:48;6.68;;;1.50;;
63394;SDS011;49531;-34.520;150.798;2023-10-31T09:16:15;4.90;;;1.55;;
63394;SDS011;49531;-34.520;150.798;2023-10-31T09:18:43;4.05;;;1.30;;
63394;SDS011;49531;-34.520;150.798;2023-10-31T09:21:10;6.65;;;1.50;;
63394;SDS011;49531;-34.520;150.798;2023-10-31T09:23:37;6.57;;;1.40;;
63394;SDS011;49531;-34.520;150.798;2023-10-31T09:26:04;5.05;;;1.55;;
63394;SDS011;49531;-34.520;150.798;2023-10-31T09:28:31;4.05;;;1.30;;
63394;SDS011;49531;-34.520;150.798;2023-10-31T09:30:59;6.45;;;1.40;;
63394;SDS011;49531;-34.520;150.798;2023-10-31T09:33:27;3.67;;;1.30;;
63394;SDS011;49531;-34.520;150.798;2023-10-31T09:35:54;4.35;;;1.40;;
63394;SDS011;49531;-34.520;150.798;2023-10-31T09:38:21;3.63;;;1.50;;
63394;SDS011;49531;-34.520;150.798;2023-10-31T09:40:49;4.38;;;1.30;;
63394;SDS011;49531;-34.520;150.798;2023-10-31T09:43:16;5.03;;;1.50;;
63394;SDS011;49531;-34.520;150.798;2023-10-31T09:45:44;4.55;;;1.40;;
63394;SDS011;49531;-34.520;150.798;2023-10-31T09:48:11;3.88;;;1.30;;
63394;SDS011;49531;-34.520;150.798;2023-10-31T09:50:39;2.47;;;1.10;;
63394;SDS011;49531;-34.520;150.798;2023-10-31T09:53:07;3.30;;;1.25;;
63394;SDS011;49531;-34.520;150.798;2023-10-31T09:55:36;3.38;;;1.30;;
63394;SDS011;49531;-34.520;150.798;2023-10-31T09:58:04;6.13;;;1.58;;
63394;SDS011;49531;-34.520;150.798;2023-10-31T10:00:31;6.30;;;1.30;;
63394;SDS011;49531;-34.520;150.798;2023-10-31T10:03:08;4.47;;;1.30;;
63394;SDS011;49531;-34.520;150.798;2023-10-31T10:05:36;3.47;;;1.30;;
63394;SDS011;49531;-34.520;150.798;2023-10-31T10:08:05;4.95;;;1.30;;
63394;SDS011;49531;-34.520;150.798;2023-10-31T10:10:33;3.13;;;1.25;;
63394;SDS011;49531;-34.520;150.798;2023-10-31T10:13:01;6.63;;;1.40;;
63394;SDS011;49531;-34.520;150.798;2023-10-31T10:15:29;4.55;;;1.45;;
63394;SDS011;49531;-34.520;150.798;2023-10-31T10:17:56;2.80;;;1.20;;
63394;SDS011;49531;-34.520;150.798;2023-10-31T10:20:23;5.68;;;1.58;;
63394;SDS011;49531;-34.520;150.798;2023-10-31T10:22:50;5.70;;;1.30;;
63394;SDS011;49531;-34.520;150.798;2023-10-31T10:25:17;4.47;;;1.48;;
63394;SDS011;49531;-34.520;150.798;2023-10-31T10:27:45;2.78;;;1.20;;
63394;SDS011;49531;-34.520;150.798;2023-10-31T10:30:13;4.72;;;1.50;;
63394;SDS011;49531;-34.520;150.798;2023-10-31T10:32:42;3.65;;;1.30;;
63394;SDS011;49531;-34.520;150.798;2023-10-31T10:35:09;4.95;;;1.40;;
63394;SDS011;49531;-34.520;150.798;2023-10-31T10:37:39;2.95;;;1.30;;
63394;SDS011;49531;-34.520;150.798;2023-10-31T10:40:06;3.92;;;1.40;;
63394;SDS011;49531;-34.520;150.798;2023-10-31T10:42:47;4.35;;;1.50;;
63394;SDS011;49531;-34.520;150.798;2023-10-31T10:45:16;5.78;;;1.35;;
63394;SDS011;49531;-34.520;150.798;2023-10-31T10:47:47;3.88;;;1.38;;
63394;SDS011;49531;-34.520;150.798;2023-10-31T10:50:19;3.58;;;1.30;;
63394;SDS011;49531;-34.520;150.798;2023-10-31T10:52:49;4.50;;;1.52;;
63394;SDS011;49531;-34.520;150.798;2023-10-31T10:55:26;4.30;;;1.27;;
63394;SDS011;49531;-34.520;150.798;2023-10-31T10:57:59;5.43;;;1.50;;
63394;SDS011;49531;-34.520;150.798;2023-10-31T11:00:31;5.32;;;1.40;;
63394;SDS011;49531;-34.520;150.798;2023-10-31T11:02:58;4.72;;;1.45;;
63394;SDS011;49531;-34.520;150.798;2023-10-31T11:05:27;2.90;;;1.20;;
63394;SDS011;49531;-34.520;150.798;2023-10-31T11:07:54;3.80;;;1.10;;
63394;SDS011;49531;-34.520;150.798;2023-10-31T11:10:27;4.03;;;1.30;;
63394;SDS011;49531;-34.520;150.798;2023-10-31T11:12:56;3.53;;;1.20;;
63394;SDS011;49531;-34.520;150.798;2023-10-31T11:15:23;6.97;;;1.48;;
63394;SDS011;49531;-34.520;150.798;2023-10-31T11:17:54;5.22;;;1.50;;
63394;SDS011;49531;-34.520;150.798;2023-10-31T11:20:25;5.40;;;1.20;;
63394;SDS011;49531;-34.520;150.798;2023-10-31T11:22:55;5.05;;;1.40;;
63394;SDS011;49531;-34.520;150.798;2023-10-31T11:25:30;4.45;;;1.30;;
63394;SDS011;49531;-34.520;150.798;2023-10-31T11:28:11;4.35;;;1.48;;
63394;SDS011;49531;-34.520;150.798;2023-10-31T11:30:39;4.75;;;1.30;;
63394;SDS011;49531;-34.520;150.798;2023-10-31T11:33:13;5.20;;;1.42;;
63394;SDS011;49531;-34.520;150.798;2023-10-31T11:35:41;3.67;;;1.30;;
63394;SDS011;49531;-34.520;150.798;2023-10-31T11:38:11;3.92;;;1.30;;
63394;SDS011;49531;-34.520;150.798;2023-10-31T11:43:15;4.70;;;1.40;;
63394;SDS011;49531;-34.520;150.798;2023-10-31T11:45:43;5.38;;;1.50;;
63394;SDS011;49531;-34.520;150.798;2023-10-31T11:48:13;5.93;;;1.50;;
63394;SDS011;49531;-34.520;150.798;2023-10-31T11:50:41;3.63;;;1.25;;
63394;SDS011;49531;-34.520;150.798;2023-10-31T11:53:11;4.38;;;1.38;;
63394;SDS011;49531;-34.520;150.798;2023-10-31T11:55:46;5.25;;;1.60;;
63394;SDS011;49531;-34.520;150.798;2023-10-31T11:58:26;2.85;;;1.20;;
63394;SDS011;49531;-34.520;150.798;2023-10-31T12:01:21;4.07;;;1.23;;
63394;SDS011;49531;-34.520;150.798;2023-10-31T12:03:49;4.15;;;1.50;;
63394;SDS011;49531;-34.520;150.798;2023-10-31T12:06:17;4.10;;;1.30;;
63394;SDS011;49531;-34.520;150.798;2023-10-31T12:08:47;4.75;;;1.20;;
63394;SDS011;49531;-34.520;150.798;2023-10-31T12:11:16;5.18;;;1.33;;
63394;SDS011;49531;-34.520;150.798;2023-10-31T12:13:57;5.47;;;1.30;;
63394;SDS011;49531;-34.520;150.798;2023-10-31T12:16:27;4.95;;;1.30;;
63394;SDS011;49531;-34.520;150.798;2023-10-31T12:19:04;7.38;;;1.55;;
63394;SDS011;49531;-34.520;150.798;2023-10-31T12:24:06;3.30;;;1.30;;
63394;SDS011;49531;-34.520;150.798;2023-10-31T12:26:35;3.95;;;1.13;;
63394;SDS011;49531;-34.520;150.798;2023-10-31T12:29:13;5.28;;;1.30;;
63394;SDS011;49531;-34.520;150.798;2023-10-31T12:31:48;4.55;;;1.20;;
63394;SDS011;49531;-34.520;150.798;2023-10-31T12:34:21;3.67;;;1.38;;
63394;SDS011;49531;-34.520;150.798;2023-10-31T12:36:51;5.10;;;1.30;;
63394;SDS011;49531;-34.520;150.798;2023-10-31T12:39:25;2.85;;;1.10;;
63394;SDS011;49531;-34.520;150.798;2023-10-31T12:41:54;3.97;;;1.25;;
63394;SDS011;49531;-34.520;150.798;2023-10-31T12:44:24;4.65;;;1.20;;
63394;SDS011;49531;-34.520;150.798;2023-10-31T12:46:52;2.40;;;1.10;;
63394;SDS011;49531;-34.520;150.798;2023-10-31T12:49:20;4.20;;;1.35;;
63394;SDS011;49531;-34.520;150.798;2023-10-31T12:52:22;4.13;;;1.20;;
63394;SDS011;49531;-34.520;150.798;2023-10-31T12:54:42;3.70;;;1.10;;
63394;SDS011;49531;-34.520;150.798;2023-10-31T12:57:09;3.58;;;1.40;;
63394;SDS011;49531;-34.520;150.798;2023-10-31T12:59:37;4.88;;;1.30;;
63394;SDS011;49531;-34.520;150.798;2023-10-31T13:02:05;3.40;;;1.30;;
63394;SDS011;49531;-34.520;150.798;2023-10-31T13:04:33;4.05;;;1.20;;
63394;SDS011;49531;-34.520;150.798;2023-10-31T13:09:32;4.70;;;1.30;;
63394;SDS011;49531;-34.520;150.798;2023-10-31T13:12:04;4.07;;;1.38;;
63394;SDS011;49531;-34.520;150.798;2023-10-31T13:14:33;3.58;;;1.20;;
63394;SDS011;49531;-34.520;150.798;2023-10-31T13:17:02;3.55;;;1.35;;
63394;SDS011;49531;-34.520;150.798;2023-10-31T13:19:29;3.22;;;1.20;;
63394;SDS011;49531;-34.520;150.798;2023-10-31T13:21:56;5.03;;;1.20;;
63394;SDS011;49531;-34.520;150.798;2023-10-31T13:24:23;4.13;;;1.35;;
63394;SDS011;49531;-34.520;150.798;2023-10-31T13:26:50;3.55;;;1.35;;
63394;SDS011;49531;-34.520;150.798;2023-10-31T13:29:18;4.13;;;1.20;;
63394;SDS011;49531;-34.520;150.798;2023-10-31T13:31:46;5.72;;;1.33;;
63394;SDS011;49531;-34.520;150.798;2023-10-31T13:34:13;3.58;;;1.15;;
63394;SDS011;49531;-34.520;150.798;2023-10-31T13:36:40;5.32;;;1.45;;
63394;SDS011;49531;-34.520;150.798;2023-10-31T13:39:07;4.57;;;1.20;;
63394;SDS011;49531;-34.520;150.798;2023-10-31T13:41:34;4.32;;;1.27;;
63394;SDS011;49531;-34.520;150.798;2023-10-31T13:44:01;5.18;;;1.40;;
63394;SDS011;49531;-34.520;150.798;2023-10-31T13:46:29;4.10;;;1.40;;
63394;SDS011;49531;-34.520;150.798;2023-10-31T13:48:56;3.72;;;1.30;;
63394;SDS011;49531;-34.520;150.798;2023-10-31T13:51:23;3.03;;;1.25;;
63394;SDS011;49531;-34.520;150.798;2023-10-31T13:53:50;3.83;;;1.30;;
63394;SDS011;49531;-34.520;150.798;2023-10-31T13:56:19;3.25;;;1.30;;
63394;SDS011;49531;-34.520;150.798;2023-10-31T13:58:46;4.53;;;1.30;;
63394;SDS011;49531;-34.520;150.798;2023-10-31T14:01:13;3.70;;;1.23;;
63394;SDS011;49531;-34.520;150.798;2023-10-31T14:03:41;4.00;;;1.15;;
63394;SDS011;49531;-34.520;150.798;2023-10-31T14:06:11;4.72;;;1.23;;
63394;SDS011;49531;-34.520;150.798;2023-10-31T14:08:39;4.32;;;1.20;;
63394;SDS011;49531;-34.520;150.798;2023-10-31T14:11:06;4.13;;;1.27;;
63394;SDS011;49531;-34.520;150.798;2023-10-31T14:13:36;4.65;;;1.20;;
63394;SDS011;49531;-34.520;150.798;2023-10-31T14:16:03;3.58;;;1.30;;
63394;SDS011;49531;-34.520;150.798;2023-10-31T14:18:31;4.35;;;1.30;;
63394;SDS011;49531;-34.520;150.798;2023-10-31T14:20:59;3.65;;;1.33;;